sensor_id;sensor_type;location;lat;lon;timestamp;P1;durP1;ratioP1;P2;durP2;ratioP2
65162;SDS011;51751;55.714;37.436;2023-03-18T00:01:57;8.35;;;2.10;;
65162;SDS011;51751;55.714;37.436;2023-03-18T00:04:24;4.65;;;1.90;;
65162;SDS011;51751;55.714;37.436;2023-03-18T00:06:52;6.75;;;2.08;;
65162;SDS011;51751;55.714;37.436;2023-03-18T00:09:20;5.00;;;1.38;;
65162;SDS011;51751;55.714;37.436;2023-03-18T00:11:47;4.60;;;2.00;;
65162;SDS011;51751;55.714;37.436;2023-03-18T00:14:19;4.75;;;1.70;;
65162;SDS011;51751;55.714;37.436;2023-03-18T00:16:45;3.53;;;1.58;;
65162;SDS011;51751;55.714;37.436;2023-03-18T00:19:10;6.25;;;1.80;;
65162;SDS011;51751;55.714;37.436;2023-03-18T00:21:37;5.68;;;1.65;;
65162;SDS011;51751;55.714;37.436;2023-03-18T00:24:03;3.05;;;1.70;;
65162;SDS011;51751;55.714;37.436;2023-03-18T00:26:29;4.32;;;1.63;;
65162;SDS011;51751;55.714;37.436;2023-03-18T00:28:55;3.50;;;1.73;;
65162;SDS011;51751;55.714;37.436;2023-03-18T00:31:22;9.15;;;1.88;;
65162;SDS011;51751;55.714;37.436;2023-03-18T00:33:49;7.00;;;1.88;;
65162;SDS011;51751;55.714;37.436;2023-03-18T00:36:33;6.53;;;1.92;;
65162;SDS011;51751;55.714;37.436;2023-03-18T00:39:01;5.00;;;1.77;;
65162;SDS011;51751;55.714;37.436;2023-03-18T00:41:28;4.95;;;1.70;;
65162;SDS011;51751;55.714;37.436;2023-03-18T00:43:57;4.70;;;1.50;;
65162;SDS011;51751;55.714;37.436;2023-03-18T00:46:25;4.75;;;1.92;;
65162;SDS011;51751;55.714;37.436;2023-03-18T00:48:54;4.55;;;1.73;;
65162;SDS011;51751;55.714;37.436;2023-03-18T00:51:25;7.97;;;2.00;;
65162;SDS011;51751;55.714;37.436;2023-03-18T00:53:54;3.83;;;1.52;;
65162;SDS011;51751;55.714;37.436;2023-03-18T00:56:22;7.43;;;1.75;;
65162;SDS011;51751;55.714;37.436;2023-03-18T00:58:52;3.15;;;1.67;;
65162;SDS011;51751;55.714;37.436;2023-03-18T01:03:58;4.90;;;1.73;;
65162;SDS011;51751;55.714;37.436;2023-03-18T01:06:28;3.97;;;1.70;;
65162;SDS011;51751;55.714;37.436;2023-03-18T01:08:55;4.20;;;1.77;;
65162;SDS011;51751;55.714;37.436;2023-03-18T01:11:23;4.80;;;2.00;;
65162;SDS011;51751;55.714;37.436;2023-03-18T01:14:08;4.57;;;1.80;;
65162;SDS011;51751;55.714;37.436;2023-03-18T01:16:35;5.68;;;1.67;;
65162;SDS011;51751;55.714;37.436;2023-03-18T01:19:01;3.25;;;2.13;;
65162;SDS011;51751;55.714;37.436;2023-03-18T01:21:28;4.20;;;1.92;;
65162;SDS011;51751;55.714;37.436;2023-03-18T01:23:58;4.57;;;1.73;;
65162;SDS011;51751;55.714;37.436;2023-03-18T01:26:28;7.32;;;2.10;;
65162;SDS011;51751;55.714;37.436;2023-03-18T01:29:03;7.03;;;1.95;;
65162;SDS011;51751;55.714;37.436;2023-03-18T01:31:30;5.00;;;1.73;;
65162;SDS011;51751;55.714;37.436;2023-03-18T01:34:02;7.35;;;2.00;;
65162;SDS011;51751;55.714;37.436;2023-03-18T01:36:37;5.78;;;1.92;;
65162;SDS011;51751;55.714;37.436;2023-03-18T01:39:06;6.20;;;2.05;;
65162;SDS011;51751;55.714;37.436;2023-03-18T01:41:36;4.05;;;1.95;;
65162;SDS011;51751;55.714;37.436;2023-03-18T01:44:17;6.90;;;1.88;;
65162;SDS011;51751;55.714;37.436;2023-03-18T01:46:48;8.95;;;2.10;;
65162;SDS011;51751;55.714;37.436;2023-03-18T01:49:33;6.15;;;1.80;;
65162;SDS011;51751;55.714;37.436;2023-03-18T01:52:12;3.20;;;1.85;;
65162;SDS011;51751;55.714;37.436;2023-03-18T01:54:43;4.75;;;1.85;;
65162;SDS011;51751;55.714;37.436;2023-03-18T01:57:12;4.75;;;2.20;;
65162;SDS011;51751;55.714;37.436;2023-03-18T01:59:40;7.13;;;2.00;;
65162;SDS011;51751;55.714;37.436;2023-03-18T02:02:07;7.70;;;2.53;;
65162;SDS011;51751;55.714;37.436;2023-03-18T02:04:39;5.13;;;2.28;;
65162;SDS011;51751;55.714;37.436;2023-03-18T02:09:44;6.07;;;2.22;;
65162;SDS011;51751;55.714;37.436;2023-03-18T02:12:11;4.18;;;1.90;;
65162;SDS011;51751;55.714;37.436;2023-03-18T02:14:38;5.30;;;1.80;;
65162;SDS011;51751;55.714;37.436;2023-03-18T02:17:28;3.80;;;1.70;;
65162;SDS011;51751;55.714;37.436;2023-03-18T02:22:33;4.15;;;1.60;;
65162;SDS011;51751;55.714;37.436;2023-03-18T02:28:03;4.63;;;1.80;;
65162;SDS011;51751;55.714;37.436;2023-03-18T02:30:34;6.68;;;1.50;;
65162;SDS011;51751;55.714;37.436;2023-03-18T02:33:04;3.63;;;1.85;;
65162;SDS011;51751;55.714;37.436;2023-03-18T02:35:30;6.38;;;1.95;;
65162;SDS011;51751;55.714;37.436;2023-03-18T02:37:59;5.63;;;2.00;;
65162;SDS011;51751;55.714;37.436;2023-03-18T02:40:27;3.55;;;1.65;;
65162;SDS011;51751;55.714;37.436;2023-03-18T02:43:14;4.30;;;1.45;;
65162;SDS011;51751;55.714;37.436;2023-03-18T02:48:48;12.25;;;1.52;;
65162;SDS011;51751;55.714;37.436;2023-03-18T02:51:15;3.38;;;1.60;;
65162;SDS011;51751;55.714;37.436;2023-03-18T02:53:42;3.20;;;1.75;;
65162;SDS011;51751;55.714;37.436;2023-03-18T02:56:08;3.72;;;1.75;;
65162;SDS011;51751;55.714;37.436;2023-03-18T02:58:35;4.18;;;1.80;;
65162;SDS011;51751;55.714;37.436;2023-03-18T03:01:27;2.50;;;1.30;;
65162;SDS011;51751;55.714;37.436;2023-03-18T03:03:56;7.53;;;2.10;;
65162;SDS011;51751;55.714;37.436;2023-03-18T03:06:22;3.13;;;1.63;;
65162;SDS011;51751;55.714;37.436;2023-03-18T03:08:49;4.38;;;1.38;;
65162;SDS011;51751;55.714;37.436;2023-03-18T03:11:15;5.25;;;1.60;;
65162;SDS011;51751;55.714;37.436;2023-03-18T03:13:45;2.88;;;1.42;;
65162;SDS011;51751;55.714;37.436;2023-03-18T03:16:13;4.32;;;1.55;;
65162;SDS011;51751;55.714;37.436;2023-03-18T03:18:40;4.25;;;1.60;;
65162;SDS011;51751;55.714;37.436;2023-03-18T03:21:09;2.92;;;1.50;;
65162;SDS011;51751;55.714;37.436;2023-03-18T03:23:36;3.30;;;1.48;;
65162;SDS011;51751;55.714;37.436;2023-03-18T03:26:02;7.65;;;1.55;;
65162;SDS011;51751;55.714;37.436;2023-03-18T03:28:28;3.35;;;1.83;;
65162;SDS011;51751;55.714;37.436;2023-03-18T03:30:55;2.80;;;1.60;;
65162;SDS011;51751;55.714;37.436;2023-03-18T03:33:21;4.35;;;1.60;;
65162;SDS011;51751;55.714;37.436;2023-03-18T03:35:47;5.05;;;1.80;;
65162;SDS011;51751;55.714;37.436;2023-03-18T03:38:14;3.45;;;1.58;;
65162;SDS011;51751;55.714;37.436;2023-03-18T03:40:40;3.42;;;1.77;;
65162;SDS011;51751;55.714;37.436;2023-03-18T03:43:06;8.18;;;1.50;;
65162;SDS011;51751;55.714;37.436;2023-03-18T03:45:58;6.55;;;1.88;;
65162;SDS011;51751;55.714;37.436;2023-03-18T03:48:24;5.07;;;1.63;;
65162;SDS011;51751;55.714;37.436;2023-03-18T03:50:50;3.10;;;1.80;;
65162;SDS011;51751;55.714;37.436;2023-03-18T03:53:16;3.90;;;1.83;;
65162;SDS011;51751;55.714;37.436;2023-03-18T03:55:43;2.22;;;1.30;;
65162;SDS011;51751;55.714;37.436;2023-03-18T03:58:12;4.75;;;1.60;;
65162;SDS011;51751;55.714;37.436;2023-03-18T04:00:39;4.80;;;1.70;;
65162;SDS011;51751;55.714;37.436;2023-03-18T04:03:05;5.25;;;1.80;;
65162;SDS011;51751;55.714;37.436;2023-03-18T04:05:31;8.93;;;2.10;;
65162;SDS011;51751;55.714;37.436;2023-03-18T04:07:58;10.32;;;2.17;;
65162;SDS011;51751;55.714;37.436;2023-03-18T04:10:33;11.02;;;2.10;;
65162;SDS011;51751;55.714;37.436;2023-03-18T04:13:03;3.53;;;1.73;;
65162;SDS011;51751;55.714;37.436;2023-03-18T04:15:29;3.67;;;1.70;;
65162;SDS011;51751;55.714;37.436;2023-03-18T04:17:57;3.65;;;1.50;;
65162;SDS011;51751;55.714;37.436;2023-03-18T04:20:29;3.60;;;1.52;;
65162;SDS011;51751;55.714;37.436;2023-03-18T04:22:57;4.68;;;1.70;;
65162;SDS011;51751;55.714;37.436;2023-03-18T04:25:23;5.20;;;1.58;;
65162;SDS011;51751;55.714;37.436;2023-03-18T04:27:52;3.17;;;1.60;;
65162;SDS011;51751;55.714;37.436;2023-03-18T04:30:22;3.60;;;1.50;;
65162;SDS011;51751;55.714;37.436;2023-03-18T04:33:02;5.47;;;1.60;;
65162;SDS011;51751;55.714;37.436;2023-03-18T04:35:30;3.65;;;1.58;;
65162;SDS011;51751;55.714;37.436;2023-03-18T04:37:56;2.85;;;1.50;;
65162;SDS011;51751;55.714;37.436;2023-03-18T04:40:23;7.70;;;1.73;;
65162;SDS011;51751;55.714;37.436;2023-03-18T04:42:49;3.90;;;1.80;;
65162;SDS011;51751;55.714;37.436;2023-03-18T04:45:21;4.00;;;1.63;;
65162;SDS011;51751;55.714;37.436;2023-03-18T04:47:50;4.05;;;1.77;;
65162;SDS011;51751;55.714;37.436;2023-03-18T04:50:17;2.33;;;1.40;;
65162;SDS011;51751;55.714;37.436;2023-03-18T04:52:44;3.97;;;1.80;;
65162;SDS011;51751;55.714;37.436;2023-03-18T04:55:15;8.40;;;1.80;;
65162;SDS011;51751;55.714;37.436;2023-03-18T04:57:45;10.02;;;2.10;;
65162;SDS011;51751;55.714;37.436;2023-03-18T05:00:14;3.30;;;1.98;;
65162;SDS011;51751;55.714;37.436;2023-03-18T05:02:43;3.30;;;1.80;;
65162;SDS011;51751;55.714;37.436;2023-03-18T05:05:10;2.60;;;1.98;;
65162;SDS011;51751;55.714;37.436;2023-03-18T05:07:46;4.70;;;1.88;;
65162;SDS011;51751;55.714;37.436;2023-03-18T05:10:14;3.05;;;1.85;;
65162;SDS011;51751;55.714;37.436;2023-03-18T05:12:40;6.63;;;2.45;;
65162;SDS011;51751;55.714;37.436;2023-03-18T05:15:09;8.43;;;1.90;;
65162;SDS011;51751;55.714;37.436;2023-03-18T05:17:40;6.35;;;1.92;;
65162;SDS011;51751;55.714;37.436;2023-03-18T05:20:09;4.22;;;2.10;;
65162;SDS011;51751;55.714;37.436;2023-03-18T05:22:40;16.27;;;2.22;;
65162;SDS011;51751;55.714;37.436;2023-03-18T05:25:13;6.85;;;2.85;;
65162;SDS011;51751;55.714;37.436;2023-03-18T05:27:40;4.65;;;1.83;;
65162;SDS011;51751;55.714;37.436;2023-03-18T05:30:17;3.22;;;1.65;;
65162;SDS011;51751;55.714;37.436;2023-03-18T05:33:02;5.35;;;2.00;;
65162;SDS011;51751;55.714;37.436;2023-03-18T05:35:46;4.88;;;1.85;;
65162;SDS011;51751;55.714;37.436;2023-03-18T05:38:31;7.32;;;1.88;;
65162;SDS011;51751;55.714;37.436;2023-03-18T05:40:57;4.18;;;1.80;;
65162;SDS011;51751;55.714;37.436;2023-03-18T05:43:36;6.13;;;1.92;;
65162;SDS011;51751;55.714;37.436;2023-03-18T05:46:02;8.27;;;1.98;;
65162;SDS011;51751;55.714;37.436;2023-03-18T05:48:49;4.07;;;1.83;;
65162;SDS011;51751;55.714;37.436;2023-03-18T05:51:16;3.75;;;1.90;;
65162;SDS011;51751;55.714;37.436;2023-03-18T05:53:42;4.50;;;1.85;;
65162;SDS011;51751;55.714;37.436;2023-03-18T05:56:18;4.47;;;2.05;;
65162;SDS011;51751;55.714;37.436;2023-03-18T05:59:09;4.35;;;1.80;;
65162;SDS011;51751;55.714;37.436;2023-03-18T06:01:41;6.30;;;2.00;;
65162;SDS011;51751;55.714;37.436;2023-03-18T06:04:07;7.88;;;1.58;;
65162;SDS011;51751;55.714;37.436;2023-03-18T06:06:36;5.80;;;1.60;;
65162;SDS011;51751;55.714;37.436;2023-03-18T06:09:09;2.88;;;1.70;;
65162;SDS011;51751;55.714;37.436;2023-03-18T06:11:36;6.28;;;1.63;;
65162;SDS011;51751;55.714;37.436;2023-03-18T06:14:06;5.55;;;1.58;;
65162;SDS011;51751;55.714;37.436;2023-03-18T06:16:32;4.63;;;1.83;;
65162;SDS011;51751;55.714;37.436;2023-03-18T06:18:59;4.65;;;1.95;;
65162;SDS011;51751;55.714;37.436;2023-03-18T06:21:27;4.32;;;1.60;;
65162;SDS011;51751;55.714;37.436;2023-03-18T06:23:53;5.95;;;1.60;;
65162;SDS011;51751;55.714;37.436;2023-03-18T06:26:22;4.25;;;1.60;;
65162;SDS011;51751;55.714;37.436;2023-03-18T06:28:51;8.38;;;1.55;;
65162;SDS011;51751;55.714;37.436;2023-03-18T06:31:17;2.85;;;1.50;;
65162;SDS011;51751;55.714;37.436;2023-03-18T06:33:43;9.80;;;1.60;;
65162;SDS011;51751;55.714;37.436;2023-03-18T06:36:11;4.32;;;1.40;;
65162;SDS011;51751;55.714;37.436;2023-03-18T06:38:44;4.45;;;1.42;;
65162;SDS011;51751;55.714;37.436;2023-03-18T06:41:12;4.85;;;1.73;;
65162;SDS011;51751;55.714;37.436;2023-03-18T06:43:46;1.92;;;1.45;;
65162;SDS011;51751;55.714;37.436;2023-03-18T06:46:33;3.35;;;1.30;;
65162;SDS011;51751;55.714;37.436;2023-03-18T06:49:05;4.93;;;1.70;;
65162;SDS011;51751;55.714;37.436;2023-03-18T06:51:36;3.17;;;1.58;;
65162;SDS011;51751;55.714;37.436;2023-03-18T06:54:02;4.32;;;1.50;;
65162;SDS011;51751;55.714;37.436;2023-03-18T06:56:30;1.60;;;1.30;;
65162;SDS011;51751;55.714;37.436;2023-03-18T06:59:06;8.32;;;1.60;;
65162;SDS011;51751;55.714;37.436;2023-03-18T07:01:36;8.30;;;1.30;;
65162;SDS011;51751;55.714;37.436;2023-03-18T07:04:02;5.32;;;1.27;;
65162;SDS011;51751;55.714;37.436;2023-03-18T07:06:50;3.67;;;1.55;;
65162;SDS011;51751;55.714;37.436;2023-03-18T07:09:18;2.25;;;1.50;;
65162;SDS011;51751;55.714;37.436;2023-03-18T07:11:50;3.78;;;1.50;;
65162;SDS011;51751;55.714;37.436;2023-03-18T07:14:20;2.78;;;1.52;;
65162;SDS011;51751;55.714;37.436;2023-03-18T07:16:46;6.55;;;1.42;;
65162;SDS011;51751;55.714;37.436;2023-03-18T07:19:14;3.38;;;1.40;;
65162;SDS011;51751;55.714;37.436;2023-03-18T07:21:42;14.18;;;1.83;;
65162;SDS011;51751;55.714;37.436;2023-03-18T07:24:10;6.78;;;1.50;;
65162;SDS011;51751;55.714;37.436;2023-03-18T07:26:37;3.25;;;1.40;;
65162;SDS011;51751;55.714;37.436;2023-03-18T07:29:12;4.72;;;1.80;;
65162;SDS011;51751;55.714;37.436;2023-03-18T07:31:38;3.95;;;1.70;;
65162;SDS011;51751;55.714;37.436;2023-03-18T07:34:03;3.65;;;1.75;;
65162;SDS011;51751;55.714;37.436;2023-03-18T07:36:30;3.47;;;1.60;;
65162;SDS011;51751;55.714;37.436;2023-03-18T07:38:56;4.47;;;1.60;;
65162;SDS011;51751;55.714;37.436;2023-03-18T07:41:22;9.95;;;1.60;;
65162;SDS011;51751;55.714;37.436;2023-03-18T07:43:48;4.20;;;1.70;;
65162;SDS011;51751;55.714;37.436;2023-03-18T07:46:14;8.30;;;1.70;;
65162;SDS011;51751;55.714;37.436;2023-03-18T07:48:40;4.00;;;1.60;;
65162;SDS011;51751;55.714;37.436;2023-03-18T07:51:08;2.85;;;1.90;;
65162;SDS011;51751;55.714;37.436;2023-03-18T07:53:34;5.50;;;1.70;;
65162;SDS011;51751;55.714;37.436;2023-03-18T07:56:00;5.25;;;1.63;;
65162;SDS011;51751;55.714;37.436;2023-03-18T07:58:26;8.88;;;1.90;;
65162;SDS011;51751;55.714;37.436;2023-03-18T08:00:52;6.32;;;1.95;;
65162;SDS011;51751;55.714;37.436;2023-03-18T08:03:18;7.03;;;2.00;;
65162;SDS011;51751;55.714;37.436;2023-03-18T08:05:44;3.83;;;1.60;;
65162;SDS011;51751;55.714;37.436;2023-03-18T08:08:10;5.20;;;1.60;;
65162;SDS011;51751;55.714;37.436;2023-03-18T08:10:39;6.78;;;1.40;;
65162;SDS011;51751;55.714;37.436;2023-03-18T08:13:05;2.85;;;1.70;;
65162;SDS011;51751;55.714;37.436;2023-03-18T08:15:31;4.30;;;1.95;;
65162;SDS011;51751;55.714;37.436;2023-03-18T08:17:56;5.30;;;1.80;;
65162;SDS011;51751;55.714;37.436;2023-03-18T08:20:22;4.03;;;1.58;;
65162;SDS011;51751;55.714;37.436;2023-03-18T08:22:48;3.85;;;1.70;;
65162;SDS011;51751;55.714;37.436;2023-03-18T08:25:15;6.15;;;2.03;;
65162;SDS011;51751;55.714;37.436;2023-03-18T08:27:41;7.43;;;2.00;;
65162;SDS011;51751;55.714;37.436;2023-03-18T08:30:07;4.88;;;2.03;;
65162;SDS011;51751;55.714;37.436;2023-03-18T08:32:35;16.50;;;1.85;;
65162;SDS011;51751;55.714;37.436;2023-03-18T08:35:01;2.80;;;1.75;;
65162;SDS011;51751;55.714;37.436;2023-03-18T08:37:29;3.08;;;1.60;;
65162;SDS011;51751;55.714;37.436;2023-03-18T08:39:58;5.63;;;1.90;;
65162;SDS011;51751;55.714;37.436;2023-03-18T08:42:23;3.45;;;1.70;;
65162;SDS011;51751;55.714;37.436;2023-03-18T08:44:49;3.30;;;1.80;;
65162;SDS011;51751;55.714;37.436;2023-03-18T08:47:15;6.57;;;2.03;;
65162;SDS011;51751;55.714;37.436;2023-03-18T08:49:41;4.03;;;1.77;;
65162;SDS011;51751;55.714;37.436;2023-03-18T08:52:07;3.35;;;1.90;;
65162;SDS011;51751;55.714;37.436;2023-03-18T08:54:33;6.10;;;1.80;;
65162;SDS011;51751;55.714;37.436;2023-03-18T08:56:59;7.25;;;1.95;;
65162;SDS011;51751;55.714;37.436;2023-03-18T08:59:25;4.53;;;1.80;;
65162;SDS011;51751;55.714;37.436;2023-03-18T09:01:51;19.40;;;3.25;;
65162;SDS011;51751;55.714;37.436;2023-03-18T09:04:20;5.18;;;2.00;;
65162;SDS011;51751;55.714;37.436;2023-03-18T09:06:46;4.13;;;1.80;;
65162;SDS011;51751;55.714;37.436;2023-03-18T09:09:15;5.13;;;1.73;;
65162;SDS011;51751;55.714;37.436;2023-03-18T09:11:44;4.50;;;2.00;;
65162;SDS011;51751;55.714;37.436;2023-03-18T09:14:12;3.45;;;1.85;;
65162;SDS011;51751;55.714;37.436;2023-03-18T09:16:39;4.15;;;1.88;;
65162;SDS011;51751;55.714;37.436;2023-03-18T09:19:05;8.48;;;1.92;;
65162;SDS011;51751;55.714;37.436;2023-03-18T09:21:30;5.00;;;1.88;;
65162;SDS011;51751;55.714;37.436;2023-03-18T09:23:56;2.83;;;1.60;;
65162;SDS011;51751;55.714;37.436;2023-03-18T09:26:23;5.18;;;1.73;;
65162;SDS011;51751;55.714;37.436;2023-03-18T09:28:49;3.33;;;1.60;;
65162;SDS011;51751;55.714;37.436;2023-03-18T09:31:15;5.90;;;1.70;;
65162;SDS011;51751;55.714;37.436;2023-03-18T09:33:41;8.43;;;2.17;;
65162;SDS011;51751;55.714;37.436;2023-03-18T09:36:08;4.25;;;1.85;;
65162;SDS011;51751;55.714;37.436;2023-03-18T09:38:34;5.00;;;1.80;;
65162;SDS011;51751;55.714;37.436;2023-03-18T09:41:06;6.07;;;1.58;;
65162;SDS011;51751;55.714;37.436;2023-03-18T09:44:08;4.18;;;1.42;;
65162;SDS011;51751;55.714;37.436;2023-03-18T09:52:49;6.30;;;1.52;;
65162;SDS011;51751;55.714;37.436;2023-03-18T09:55:48;2.28;;;1.50;;
65162;SDS011;51751;55.714;37.436;2023-03-18T09:58:27;2.33;;;1.60;;
65162;SDS011;51751;55.714;37.436;2023-03-18T10:01:02;5.35;;;1.50;;
65162;SDS011;51751;55.714;37.436;2023-03-18T10:03:42;1.83;;;0.98;;
65162;SDS011;51751;55.714;37.436;2023-03-18T10:11:45;3.13;;;1.38;;
65162;SDS011;51751;55.714;37.436;2023-03-18T10:17:01;2.38;;;1.50;;
65162;SDS011;51751;55.714;37.436;2023-03-18T10:19:32;2.50;;;1.30;;
65162;SDS011;51751;55.714;37.436;2023-03-18T10:24:38;2.58;;;1.52;;
65162;SDS011;51751;55.714;37.436;2023-03-18T10:27:16;3.60;;;1.27;;
65162;SDS011;51751;55.714;37.436;2023-03-18T10:30:01;4.85;;;1.40;;
65162;SDS011;51751;55.714;37.436;2023-03-18T10:40:55;1.42;;;1.23;;
65162;SDS011;51751;55.714;37.436;2023-03-18T10:43:25;2.38;;;1.67;;
65162;SDS011;51751;55.714;37.436;2023-03-18T10:45:58;4.65;;;1.50;;
65162;SDS011;51751;55.714;37.436;2023-03-18T10:56:34;2.65;;;1.20;;
65162;SDS011;51751;55.714;37.436;2023-03-18T10:59:20;1.90;;;1.10;;
65162;SDS011;51751;55.714;37.436;2023-03-18T11:01:47;1.70;;;1.15;;
65162;SDS011;51751;55.714;37.436;2023-03-18T11:04:17;2.83;;;1.48;;
65162;SDS011;51751;55.714;37.436;2023-03-18T11:06:47;2.97;;;1.45;;
65162;SDS011;51751;55.714;37.436;2023-03-18T11:09:16;3.03;;;1.40;;
65162;SDS011;51751;55.714;37.436;2023-03-18T11:11:45;4.20;;;1.63;;
65162;SDS011;51751;55.714;37.436;2023-03-18T11:14:19;3.53;;;1.60;;
65162;SDS011;51751;55.714;37.436;2023-03-18T11:17:03;2.10;;;1.33;;
65162;SDS011;51751;55.714;37.436;2023-03-18T11:19:31;4.25;;;1.42;;
65162;SDS011;51751;55.714;37.436;2023-03-18T11:22:16;2.58;;;1.50;;
65162;SDS011;51751;55.714;37.436;2023-03-18T11:27:41;2.00;;;1.50;;
65162;SDS011;51751;55.714;37.436;2023-03-18T11:30:20;4.65;;;1.50;;
65162;SDS011;51751;55.714;37.436;2023-03-18T11:40:46;2.28;;;1.30;;
65162;SDS011;51751;55.714;37.436;2023-03-18T11:43:20;4.82;;;1.50;;
65162;SDS011;51751;55.714;37.436;2023-03-18T11:46:06;1.80;;;1.17;;
65162;SDS011;51751;55.714;37.436;2023-03-18T11:48:40;2.25;;;1.40;;
65162;SDS011;51751;55.714;37.436;2023-03-18T11:56:22;3.40;;;1.52;;
65162;SDS011;51751;55.714;37.436;2023-03-18T12:08:57;4.55;;;1.48;;
65162;SDS011;51751;55.714;37.436;2023-03-18T12:17:05;2.60;;;1.40;;
65162;SDS011;51751;55.714;37.436;2023-03-18T12:22:42;3.45;;;1.50;;
65162;SDS011;51751;55.714;37.436;2023-03-18T12:27:58;2.70;;;1.70;;
65162;SDS011;51751;55.714;37.436;2023-03-18T12:30:48;1.70;;;1.17;;
65162;SDS011;51751;55.714;37.436;2023-03-18T12:49:37;2.50;;;1.27;;
65162;SDS011;51751;55.714;37.436;2023-03-18T12:55:32;6.70;;;1.67;;
65162;SDS011;51751;55.714;37.436;2023-03-18T13:00:21;3.28;;;1.10;;
65162;SDS011;51751;55.714;37.436;2023-03-18T13:08:40;2.53;;;1.30;;
65162;SDS011;51751;55.714;37.436;2023-03-18T13:14:53;1.77;;;1.20;;
65162;SDS011;51751;55.714;37.436;2023-03-18T13:17:37;4.50;;;1.30;;
65162;SDS011;51751;55.714;37.436;2023-03-18T13:20:11;1.58;;;1.10;;
65162;SDS011;51751;55.714;37.436;2023-03-18T13:22:51;2.60;;;1.02;;
65162;SDS011;51751;55.714;37.436;2023-03-18T13:44:41;2.22;;;1.50;;
65162;SDS011;51751;55.714;37.436;2023-03-18T13:47:13;3.60;;;1.20;;
65162;SDS011;51751;55.714;37.436;2023-03-18T13:50:01;2.13;;;1.35;;
65162;SDS011;51751;55.714;37.436;2023-03-18T13:52:34;2.20;;;1.42;;
65162;SDS011;51751;55.714;37.436;2023-03-18T14:16:29;2.30;;;1.20;;
65162;SDS011;51751;55.714;37.436;2023-03-18T14:21:43;2.03;;;1.20;;
65162;SDS011;51751;55.714;37.436;2023-03-18T14:35:24;2.15;;;1.20;;
65162;SDS011;51751;55.714;37.436;2023-03-18T14:40:29;2.25;;;1.63;;
65162;SDS011;51751;55.714;37.436;2023-03-18T14:43:01;5.03;;;1.70;;
65162;SDS011;51751;55.714;37.436;2023-03-18T14:45:57;3.53;;;1.60;;
65162;SDS011;51751;55.714;37.436;2023-03-18T14:48:31;3.78;;;1.95;;
65162;SDS011;51751;55.714;37.436;2023-03-18T14:51:18;2.03;;;1.40;;
65162;SDS011;51751;55.714;37.436;2023-03-18T14:54:05;5.68;;;1.40;;
65162;SDS011;51751;55.714;37.436;2023-03-18T14:56:53;4.25;;;1.33;;
65162;SDS011;51751;55.714;37.436;2023-03-18T14:59:22;4.40;;;1.70;;
65162;SDS011;51751;55.714;37.436;2023-03-18T15:01:48;11.50;;;1.88;;
65162;SDS011;51751;55.714;37.436;2023-03-18T15:04:17;1.42;;;1.30;;
65162;SDS011;51751;55.714;37.436;2023-03-18T15:07:03;3.08;;;1.45;;
65162;SDS011;51751;55.714;37.436;2023-03-18T15:09:31;2.47;;;1.50;;
65162;SDS011;51751;55.714;37.436;2023-03-18T15:12:13;3.08;;;1.60;;
65162;SDS011;51751;55.714;37.436;2023-03-18T15:14:44;6.15;;;1.55;;
65162;SDS011;51751;55.714;37.436;2023-03-18T15:17:14;2.65;;;1.58;;
65162;SDS011;51751;55.714;37.436;2023-03-18T15:19:43;3.13;;;1.60;;
65162;SDS011;51751;55.714;37.436;2023-03-18T15:22:17;2.58;;;1.70;;
65162;SDS011;51751;55.714;37.436;2023-03-18T15:24:58;3.65;;;1.60;;
65162;SDS011;51751;55.714;37.436;2023-03-18T15:27:30;4.50;;;1.80;;
65162;SDS011;51751;55.714;37.436;2023-03-18T15:29:59;4.57;;;1.60;;
65162;SDS011;51751;55.714;37.436;2023-03-18T15:32:32;7.47;;;2.03;;
65162;SDS011;51751;55.714;37.436;2023-03-18T15:37:36;13.20;;;2.10;;
65162;SDS011;51751;55.714;37.436;2023-03-18T15:42:54;5.43;;;1.70;;
65162;SDS011;51751;55.714;37.436;2023-03-18T15:45:23;6.28;;;2.00;;
65162;SDS011;51751;55.714;37.436;2023-03-18T15:47:51;3.25;;;1.70;;
65162;SDS011;51751;55.714;37.436;2023-03-18T16:01:02;8.68;;;1.70;;
65162;SDS011;51751;55.714;37.436;2023-03-18T16:03:33;3.08;;;1.45;;
65162;SDS011;51751;55.714;37.436;2023-03-18T16:05:59;7.10;;;1.58;;
65162;SDS011;51751;55.714;37.436;2023-03-18T16:08:32;5.72;;;1.80;;
65162;SDS011;51751;55.714;37.436;2023-03-18T16:10:59;5.07;;;1.85;;
65162;SDS011;51751;55.714;37.436;2023-03-18T16:13:32;4.60;;;1.60;;
65162;SDS011;51751;55.714;37.436;2023-03-18T16:15:58;5.40;;;1.50;;
65162;SDS011;51751;55.714;37.436;2023-03-18T16:18:25;10.95;;;1.65;;
65162;SDS011;51751;55.714;37.436;2023-03-18T16:20:51;5.40;;;2.00;;
65162;SDS011;51751;55.714;37.436;2023-03-18T16:23:23;5.10;;;1.77;;
65162;SDS011;51751;55.714;37.436;2023-03-18T16:25:50;3.38;;;1.73;;
65162;SDS011;51751;55.714;37.436;2023-03-18T16:28:21;3.03;;;2.05;;
65162;SDS011;51751;55.714;37.436;2023-03-18T16:30:48;3.10;;;1.85;;
65162;SDS011;51751;55.714;37.436;2023-03-18T16:33:17;4.90;;;1.90;;
65162;SDS011;51751;55.714;37.436;2023-03-18T16:35:44;7.35;;;1.63;;
65162;SDS011;51751;55.714;37.436;2023-03-18T16:38:21;6.32;;;1.50;;
65162;SDS011;51751;55.714;37.436;2023-03-18T16:40:47;5.80;;;2.17;;
65162;SDS011;51751;55.714;37.436;2023-03-18T16:43:20;4.70;;;1.60;;
65162;SDS011;51751;55.714;37.436;2023-03-18T16:45:58;8.52;;;1.95;;
65162;SDS011;51751;55.714;37.436;2023-03-18T16:48:28;6.75;;;1.70;;
65162;SDS011;51751;55.714;37.436;2023-03-18T16:50:54;3.22;;;1.70;;
65162;SDS011;51751;55.714;37.436;2023-03-18T16:53:24;7.15;;;2.00;;
65162;SDS011;51751;55.714;37.436;2023-03-18T16:55:53;2.75;;;1.60;;
65162;SDS011;51751;55.714;37.436;2023-03-18T16:58:31;3.50;;;1.52;;
65162;SDS011;51751;55.714;37.436;2023-03-18T17:00:59;8.32;;;2.10;;
65162;SDS011;51751;55.714;37.436;2023-03-18T17:03:26;9.70;;;2.15;;
65162;SDS011;51751;55.714;37.436;2023-03-18T17:05:52;4.95;;;2.28;;
65162;SDS011;51751;55.714;37.436;2023-03-18T17:08:18;11.75;;;2.75;;
65162;SDS011;51751;55.714;37.436;2023-03-18T17:10:45;8.15;;;2.10;;
65162;SDS011;51751;55.714;37.436;2023-03-18T17:13:20;4.68;;;2.15;;
65162;SDS011;51751;55.714;37.436;2023-03-18T17:15:48;4.38;;;1.80;;
65162;SDS011;51751;55.714;37.436;2023-03-18T17:18:16;14.02;;;3.42;;
65162;SDS011;51751;55.714;37.436;2023-03-18T17:20:45;8.23;;;2.40;;
65162;SDS011;51751;55.714;37.436;2023-03-18T17:23:15;4.63;;;2.10;;
65162;SDS011;51751;55.714;37.436;2023-03-18T17:25:43;3.13;;;1.92;;
65162;SDS011;51751;55.714;37.436;2023-03-18T17:28:17;7.90;;;2.22;;
65162;SDS011;51751;55.714;37.436;2023-03-18T17:30:46;3.75;;;2.00;;
65162;SDS011;51751;55.714;37.436;2023-03-18T17:33:17;6.95;;;2.08;;
65162;SDS011;51751;55.714;37.436;2023-03-18T17:35:46;6.78;;;2.28;;
65162;SDS011;51751;55.714;37.436;2023-03-18T17:38:15;7.57;;;2.40;;
65162;SDS011;51751;55.714;37.436;2023-03-18T17:40:41;9.70;;;2.20;;
65162;SDS011;51751;55.714;37.436;2023-03-18T17:43:08;7.25;;;2.05;;
65162;SDS011;51751;55.714;37.436;2023-03-18T17:45:46;4.72;;;2.30;;
65162;SDS011;51751;55.714;37.436;2023-03-18T17:48:19;5.57;;;2.90;;
65162;SDS011;51751;55.714;37.436;2023-03-18T17:50:50;8.70;;;2.63;;
65162;SDS011;51751;55.714;37.436;2023-03-18T17:53:25;7.60;;;2.40;;
65162;SDS011;51751;55.714;37.436;2023-03-18T17:55:54;9.23;;;2.60;;
65162;SDS011;51751;55.714;37.436;2023-03-18T17:58:24;5.45;;;2.38;;
65162;SDS011;51751;55.714;37.436;2023-03-18T18:00:56;5.90;;;2.03;;
65162;SDS011;51751;55.714;37.436;2023-03-18T18:03:27;8.98;;;2.92;;